Jitra Kuala Nerang, Malaysia
Current Conditions -  °F | °C
As of 3:00 AM on Monday 22 Dec 2014 (Local Time) from WMKA Reporting Station
Light Rain Light Rain  
Wind Chill: 75°   Ceiling: 26000
Heat Index: 75°   Visibility: 6mi
Dew Point: 73°   Wind: 2mph
Humidity: 94%   Direction: 50°NE
Pressure: 29.77"   Gusts: NA
Location:  6.26°N, 100.42°E
Report Text: WMKA 211900Z 05002KT 9999 -RA SCT026 SCT140 OVC260 24/23 Q1008
Loading
Personal Weather Stations






























Interactive Weather Map New forecast layout! Learn more

10-Day Weather Forecast

Advertisements
Track Severe Weather on mobile